Cheraw, SC

11:56 PM EDT on July 28, 2014 (GMT -0400)
Cheraw (KCQW) Elev 240 ft | 34.71 °N, 79.96 °W | Change Station

Current weather conditions updated 1 minute ago

Clear
Clear
73 °F
Feels Like 73 °F
N
6
Wind Variable Wind from NNW

Tomorrow is forecast to be Cooler than today.

Today
High -- | Low -- °F
--% Chance of Precip.
Yesterday
High -- | Low -- °F
Precip. -- in
6:26 AM 8:25 PM
Waxing Crescent, 4% visible
Pressure 29.87 in
Visibility 10.0 miles
Clouds Clear
Dew Point 59 °F
Humidity 61%
Rainfall 0.00 in
Snow Depth Not available.
UV 0 out of 12
Pollen 4.80 out of 12
Ozone Good
PM2.5 Good
Flu Activity Not available.
METAR KCQW 290355Z AUTO 34005KT 10SM CLR 23/15 A2987 RMK AO2

More Conditions Fewer Conditions

Pressure 29.87 in
Visibility 10.0 miles
Clouds Clear
Dew Point 59 °F
Humidity 61%
Rainfall 0.00 in
Snow Depth Not available.
UV 0 out of 12
Pollen 4.80 out of 12
Ozone Good
PM2.5 Good
Flu Activity Not available.
METAR KCQW 290355Z AUTO 34005KT 10SM CLR 23/15 A2987 RMK AO2

More Conditions Fewer Conditions

10-Day Weather Forecast

Almanac

Astronomy

Jul. 28, 2014 Rise Set
Actual Time 6:26 AM EDT 8:25 PM EDT
Civil Twilight 5:58 AM EDT 8:53 PM EDT
Nautical Twilight 5:24 AM EDT 9:27 PM EDT
Astronomical Twilight 4:48 AM EDT 10:03 PM EDT
Moon 8:00 AM EDT (7/28) 9:13 PM EDT (7/28)
Length of Visible Light 14h 54m
Length of Day
13h 58m
Tomorrow will be 1m 32s shorter.
Waxing Crescent, 4% of the Moon is Illuminated
Today
Waxing Crescent
Aug 3
First Quarter
Aug 10
Full
Aug 17
Last Quarter
Aug 25
New

Today's Extremes

State Highs State Lows

Community

WunderPhotos

Upload Photos

1,738,618 photos uploaded!

Nearby

Air Quality

  Air Quality AQ Index Pollutant
Yesterday Moderate
PM2.5
Yesterday Good
OZONE
Current Good
PM2.5
Current Good
OZONE
Monday Good
OZONE
Tuesday Good
OZONE

Snow Depth

Station Depth Elevation
No new snow has been reported.

Earthquake Activity

City Distance Mag. Time & Date
No recent earthquake activity has been reported nearby.
Minimum magnitude displayed is 2.5.

Coastal Water Temperatures

Place Temperature
No Stations Reporting

Nearby Weather Stations

Station Location Temp. Heat Index Dew Point Humidity Wind Precip. Elev Updated Type
Cheraw, SC 74.4 °F 75 °F 66 °F 76% NNE  at  0.0 mph 0.00 in / hr 110 ft 11:55 PM EDT Normal
Hunts Mill, Chesterfield, SC 73.4 °F 75 °F 63 °F 71% SSW  at  0.0 mph - / hr 164 ft 11:44 PM EDT Normal
White Rock Dairy, Peachland, NC 73.6 °F 76 °F 62 °F 68% SW  at  2.2 mph - / hr 469 ft 11:49 PM EDT Normal
Cottingham Creek, Bennettsville, SC 75.1 °F 77 °F 64 °F 69% NNE  at  0.0 mph 0.00 in / hr 143 ft 11:55 PM EDT Rapid Fire
Deer Run, Hamlet, NC 73.6 °F 76 °F 62 °F 67% NNE  at  0.0 mph 0.00 in / hr 400 ft 11:41 PM EDT Normal
McBee, SC, McBee, SC 75.3 °F 78 °F 59 °F 58% North  at  0.0 mph 0.00 in / hr 499 ft 11:55 PM EDT Normal
RAWS ROCKINGHAM NC, Rockingham, NC 75 °F 77 °F 60 °F 60% South  at  1 mph 0.00 in / hr 399 ft 10:45 PM EDT MADIS

Show More Stations Show Fewer Stations